Blythe, Georgia
Current Conditions -  °F | °C
As of 10:53 AM on Wednesday 22 Oct 2014 (Local Time) from KAGS Reporting Station
Clear Clear  
Wind Chill: 62°   Ceiling: Unl
Heat Index: 62°   Visibility: 10mi
Dew Point: 39°   Wind: 9mph
Humidity: 43%   Direction: 10°N
Pressure: 30.1"   Gusts: NA
Location:  33.29°N, 82.2°W
Report Text: KAGS 221453Z 01008KT 10SM CLR 17/04 A3010 RMK AO2 SLP190 T01670039 51014
Loading
Personal Weather Stations






























Interactive Weather Map
Tropical Storm Tracking
New forecast layout! Learn more

10-Day Weather Forecast

Advertisements
Track Severe Weather on mobile